EST,Max TemperatureF,Mean TemperatureF,Min TemperatureF,Max Dew PointF,MeanDew PointF,Min DewpointF,Max Humidity, Mean Humidity, Min Humidity, Max Sea Level PressureIn, Mean Sea Level PressureIn, Min Sea Level PressureIn, Max VisibilityMiles, Mean VisibilityMiles, Min VisibilityMiles, Max Wind SpeedMPH, Mean Wind SpeedMPH, Max Gust SpeedMPH,PrecipitationIn, CloudCover, Events, WindDirDegrees
2012-12-1,61,46,31,44,38,28,96,76,50,30.41,30.35,30.31,10,10,7,14,3,18,0.00,1,,252
2012-12-2,64,48,33,47,41,33,98,75,47,30.36,30.31,30.25,10,8,2,18,4,31,0.00,1,,244
2012-12-3,67,57,47,52,49,45,94,74,53,30.35,30.30,30.28,10,10,7,16,8,18,0.00,5,Rain,250
2012-12-4,66,52,38,54,46,38,100,79,54,30.34,30.27,30.19,10,7,0,17,3,26,0.00,4,Fog,243
2012-12-5,57,48,39,54,40,24,99,67,30,30.28,30.22,30.16,10,10,5,14,7,20,0.04,4,Rain,269
2012-12-6,47,40,32,42,38,30,97,84,64,30.28,30.21,30.17,10,9,5,9,7,,0.04,8,Rain,67
2012-12-7,62,48,35,51,43,35,100,88,62,30.16,30.08,30.01,10,7,1,9,4,,0.00,3,,93
2012-12-8,61,50,40,54,49,40,100,92,69,30.07,30.02,29.99,10,6,0,15,5,23,0.00,6,Fog-Rain,251
2012-12-9,70,56,41,55,49,42,99,81,49,30.14,30.06,29.97,10,7,0,10,2,17,0.02,5,Fog-Rain,129
2012-12-10,58,50,42,56,53,40,100,92,79,29.98,29.80,29.70,10,9,4,16,4,22,0.44,6,Rain-Thunderstorm,267
2012-12-11,41,36,31,41,32,28,99,83,71,30.18,30.01,29.83,10,10,2,14,7,20,0.01,6,Snow,293
2012-12-12,39,34,30,32,30,28,98,87,73,30.32,30.27,30.17,10,10,7,9,2,,0.00,2,,88
2012-12-13,48,38,28,31,27,24,98,74,40,30.40,30.34,30.28,10,10,5,8,4,,0.00,1,,82
2012-12-14,54,40,25,35,27,23,96,68,32,30.37,30.30,30.24,10,10,2,15,4,18,0.00,0,,243
2012-12-15,56,45,34,34,30,26,79,58,31,30.24,30.14,30.04,10,10,10,12,3,,0.00,3,Rain,73
2012-12-16,53,48,42,53,46,33,100,93,60,30.05,29.97,29.89,10,8,3,9,3,,0.30,8,Rain,233
2012-12-17,53,47,41,52,48,42,100,98,83,29.88,29.78,29.66,10,6,0,15,2,22,0.08,7,Fog-Rain,25
2012-12-18,47,41,35,47,38,32,100,82,60,29.93,29.80,29.66,10,10,5,29,14,38,0.05,5,Rain,265
2012-12-19,54,44,35,39,35,30,100,74,54,30.14,30.04,29.91,10,10,10,20,11,26,0.00,1,,254
2012-12-20,47,40,34,45,38,32,99,88,70,30.13,29.85,29.53,10,9,4,36,10,50,0.45,5,Rain-Snow,71
2012-12-21,36,32,28,32,25,22,90,80,74,29.82,29.64,29.52,10,4,0,40,27,58,0.09,8,Snow,273
2012-12-22,34,30,26,23,21,20,78,71,62,30.13,30.04,29.82,10,8,2,37,27,56,0.00,4,Snow,266
2012-12-23,49,38,28,41,25,16,100,61,37,30.09,30.04,29.98,10,9,1,22,13,30,0.00,3,,250
2012-12-24,48,44,41,48,45,41,100,100,94,30.02,29.90,29.82,10,4,0,14,6,18,0.36,8,Fog-Rain,294
2012-12-25,49,44,40,45,41,38,100,86,66,30.09,30.02,29.94,10,9,2,15,9,21,0.05,6,Rain,96
2012-12-26,43,38,33,44,37,31,100,99,91,30.01,29.67,29.49,10,5,0,29,15,39,0.42,8,Rain-Snow,82
2012-12-27,33,30,28,30,27,26,96,89,84,30.08,29.93,29.68,10,10,3,36,23,45,0.00,8,,274
2012-12-28,37,32,26,34,29,26,100,89,75,30.09,30.02,29.87,10,10,7,13,5,16,0.00,7,Rain,55
2012-12-29,42,36,30,39,32,22,100,85,71,29.97,29.78,29.68,10,8,2,31,14,44,0.09,8,Rain-Snow,275
2012-12-30,34,29,24,24,21,18,86,72,53,30.36,30.26,29.97,10,10,5,30,20,46,0.00,4,Snow,270
2012-12-31,42,32,23,24,20,14,91,63,34,30.33,30.22,30.09,10,10,10,20,11,26,0.00,3,,256